createdAt,value
2022-12-11T00:00:41.627Z,13.23
2022-12-11T00:03:15.371Z,12.70
2022-12-11T00:05:45.034Z,10.93
2022-12-11T00:08:13.901Z,13.83
2022-12-11T00:10:50.350Z,13.53
2022-12-11T00:13:18.220Z,13.97
2022-12-11T00:15:46.125Z,14.20
2022-12-11T00:18:14.740Z,14.17
2022-12-11T00:20:43.640Z,13.80
2022-12-11T00:23:11.843Z,13.47
2022-12-11T00:25:43.886Z,14.37
2022-12-11T00:28:13.969Z,14.23
2022-12-11T00:30:43.287Z,14.60
2022-12-11T00:33:12.513Z,15.63
2022-12-11T00:35:40.913Z,13.67
2022-12-11T00:38:08.984Z,15.77
2022-12-11T00:40:37.289Z,15.50
2022-12-11T00:43:06.378Z,15.33
2022-12-11T00:45:38.764Z,15.33
2022-12-11T00:48:07.609Z,17.07
2022-12-11T00:50:35.897Z,14.67
2022-12-11T00:53:04.769Z,16.83
2022-12-11T00:55:33.179Z,16.57
2022-12-11T00:58:01.106Z,15.57
2022-12-11T01:00:29.050Z,15.03
2022-12-11T01:02:58.651Z,15.30
2022-12-11T01:05:26.966Z,18.73
2022-12-11T01:07:54.821Z,14.93
2022-12-11T01:10:25.062Z,14.57
2022-12-11T01:12:53.578Z,15.87
2022-12-11T01:15:22.970Z,13.97
2022-12-11T01:17:52.052Z,13.53
2022-12-11T01:20:22.516Z,11.90
2022-12-11T01:22:53.240Z,15.00
2022-12-11T01:25:21.117Z,13.60
2022-12-11T01:27:51.658Z,13.57
2022-12-11T01:30:20.801Z,14.10
2022-12-11T01:32:49.755Z,13.67
2022-12-11T01:35:18.067Z,12.90
2022-12-11T01:37:47.727Z,14.23
2022-12-11T01:40:16.673Z,13.17
2022-12-11T01:42:44.566Z,13.03
2022-12-11T01:45:30.252Z,14.57
2022-12-11T01:48:02.804Z,13.33
2022-12-11T01:50:33.963Z,12.57
2022-12-11T01:53:04.929Z,13.37
2022-12-11T01:55:34.228Z,14.30
2022-12-11T01:58:03.265Z,14.30
2022-12-11T02:00:31.173Z,13.67
2022-12-11T02:02:59.085Z,15.67
2022-12-11T02:05:27.677Z,14.90
2022-12-11T02:07:58.295Z,14.70
2022-12-11T02:10:40.040Z,14.83
2022-12-11T02:13:14.553Z,15.77
2022-12-11T02:15:50.882Z,15.87
2022-12-11T02:18:26.394Z,15.30
2022-12-11T02:21:03.285Z,13.83
2022-12-11T02:24:21.601Z,14.37
2022-12-11T02:27:22.824Z,14.00
2022-12-11T02:29:54.888Z,14.43
2022-12-11T02:32:25.644Z,15.30
2022-12-11T02:35:00.384Z,14.67
2022-12-11T02:37:32.191Z,16.20
2022-12-11T02:40:00.106Z,18.07
2022-12-11T02:42:31.331Z,14.23
2022-12-11T02:45:02.592Z,17.50
2022-12-11T02:47:33.299Z,17.63
2022-12-11T02:50:04.899Z,16.47
2022-12-11T02:52:35.643Z,17.87
2022-12-11T02:55:05.241Z,15.30
2022-12-11T02:57:39.162Z,16.23
2022-12-11T03:00:10.861Z,14.73
2022-12-11T03:02:39.455Z,15.17
2022-12-11T03:05:08.641Z,15.00
2022-12-11T03:07:40.926Z,15.30
2022-12-11T03:10:11.412Z,15.57
2022-12-11T03:12:51.819Z,16.90
2022-12-11T03:15:25.011Z,15.07
2022-12-11T03:18:02.586Z,14.10
2022-12-11T03:20:38.984Z,14.83
2022-12-11T03:23:18.609Z,13.53
2022-12-11T03:25:55.465Z,17.00
2022-12-11T03:28:30.186Z,15.40
2022-12-11T03:31:04.233Z,15.40
2022-12-11T03:33:36.243Z,14.93
2022-12-11T03:36:08.320Z,14.80
2022-12-11T03:38:42.214Z,17.23
2022-12-11T03:41:11.576Z,15.97
2022-12-11T03:43:41.481Z,15.27
2022-12-11T03:46:12.554Z,17.20
2022-12-11T03:48:42.570Z,16.43
2022-12-11T03:51:10.751Z,17.60
2022-12-11T03:53:39.700Z,16.00
2022-12-11T03:56:10.935Z,17.87
2022-12-11T03:58:39.541Z,17.90
2022-12-11T04:01:11.741Z,16.53
2022-12-11T04:03:40.502Z,18.13
2022-12-11T04:06:08.784Z,18.00
2022-12-11T04:08:36.680Z,16.90
2022-12-11T04:11:23.172Z,16.37
2022-12-11T04:14:11.220Z,14.30
2022-12-11T04:16:39.455Z,18.07
2022-12-11T04:19:25.049Z,17.97
2022-12-11T04:22:10.397Z,16.97
2022-12-11T04:24:38.608Z,17.13
2022-12-11T04:27:06.482Z,18.53
2022-12-11T04:29:34.411Z,16.13
2022-12-11T04:32:03.608Z,15.57
2022-12-11T04:34:31.590Z,15.73
2022-12-11T04:36:59.440Z,15.47
2022-12-11T04:39:27.313Z,14.17
2022-12-11T04:41:55.102Z,16.20
2022-12-11T04:44:22.975Z,15.07
2022-12-11T04:46:50.911Z,15.33
2022-12-11T04:49:20.170Z,13.50
2022-12-11T04:51:47.970Z,13.20
2022-12-11T04:54:15.827Z,14.27
2022-12-11T04:56:43.677Z,12.97
2022-12-11T04:59:11.493Z,14.17
2022-12-11T05:01:39.409Z,12.43
2022-12-11T05:04:07.338Z,13.87
2022-12-11T05:06:36.496Z,13.17
2022-12-11T05:09:04.534Z,13.80
2022-12-11T05:11:33.436Z,12.83
2022-12-11T05:14:01.298Z,12.60
2022-12-11T05:16:29.166Z,13.87
2022-12-11T05:18:57.107Z,14.60
2022-12-11T05:21:24.907Z,12.90
2022-12-11T05:23:54.125Z,12.83
2022-12-11T05:26:22.090Z,13.60
2022-12-11T05:28:53.279Z,13.37
2022-12-11T05:31:23.261Z,13.33
2022-12-11T05:33:51.752Z,13.50
2022-12-11T05:36:22.022Z,12.30
2022-12-11T05:38:50.406Z,12.67
2022-12-11T05:41:21.779Z,13.90
2022-12-11T05:43:50.146Z,12.60
2022-12-11T05:46:19.654Z,14.53
2022-12-11T05:48:50.574Z,14.30
2022-12-11T05:51:18.817Z,13.40
2022-12-11T05:53:48.444Z,12.03
2022-12-11T05:56:19.993Z,13.40
2022-12-11T05:58:49.197Z,14.57
2022-12-11T06:01:19.010Z,12.93
2022-12-11T06:03:47.035Z,13.60
2022-12-11T06:06:15.123Z,12.67
2022-12-11T06:08:43.064Z,14.70
2022-12-11T06:11:12.477Z,14.80
2022-12-11T06:13:41.847Z,13.90
2022-12-11T06:16:11.109Z,13.27
2022-12-11T06:18:40.546Z,14.47
2022-12-11T06:21:15.931Z,14.97
2022-12-11T06:23:44.735Z,15.57
2022-12-11T06:26:12.996Z,16.40
2022-12-11T06:28:42.220Z,14.00
2022-12-11T06:31:10.182Z,15.40
2022-12-11T06:33:38.162Z,13.70
2022-12-11T06:36:08.671Z,14.40
2022-12-11T06:38:38.059Z,15.27
2022-12-11T06:41:07.938Z,14.30
2022-12-11T06:43:37.588Z,15.40
2022-12-11T06:46:08.201Z,14.57
2022-12-11T06:48:36.259Z,14.10
2022-12-11T06:51:06.759Z,14.17
2022-12-11T06:53:34.664Z,12.47
2022-12-11T06:56:04.460Z,12.00
2022-12-11T06:58:32.349Z,12.70
2022-12-11T07:01:00.248Z,14.93
2022-12-11T07:03:29.922Z,13.03
2022-12-11T07:06:01.757Z,12.73
2022-12-11T07:08:29.771Z,12.13
2022-12-11T07:11:04.507Z,12.93
2022-12-11T07:13:32.347Z,12.07
2022-12-11T07:16:00.266Z,14.37
2022-12-11T07:18:29.569Z,11.90
2022-12-11T07:20:59.283Z,13.20
2022-12-11T07:23:28.229Z,13.60
2022-12-11T07:25:56.766Z,12.83
2022-12-11T07:28:26.059Z,14.10
2022-12-11T07:30:54.090Z,12.47
2022-12-11T07:33:21.943Z,12.50
2022-12-11T07:35:51.215Z,14.00
2022-12-11T07:38:19.063Z,12.77
2022-12-11T07:40:46.955Z,11.77
2022-12-11T07:43:14.903Z,14.20
2022-12-11T07:45:42.788Z,14.50
2022-12-11T07:48:10.813Z,13.50
2022-12-11T07:50:40.048Z,15.10
2022-12-11T07:53:09.276Z,14.50
2022-12-11T07:55:37.864Z,14.77
2022-12-11T07:58:05.708Z,14.60
2022-12-11T08:00:33.597Z,14.87
2022-12-11T08:03:01.478Z,14.50
2022-12-11T08:05:29.489Z,14.50
2022-12-11T08:07:57.411Z,15.23
2022-12-11T08:10:26.594Z,14.60
2022-12-11T08:12:54.424Z,15.10
2022-12-11T08:15:22.241Z,15.67
2022-12-11T08:17:50.061Z,14.13
2022-12-11T08:20:18.056Z,14.00
2022-12-11T08:22:45.814Z,14.77
2022-12-11T08:25:13.737Z,12.07
2022-12-11T08:27:43.208Z,13.90
2022-12-11T08:30:12.413Z,12.87
2022-12-11T08:32:40.288Z,13.00
2022-12-11T08:35:09.859Z,12.47
2022-12-11T08:37:38.122Z,13.03
2022-12-11T08:40:07.114Z,11.33
2022-12-11T08:42:34.994Z,12.13
2022-12-11T08:45:04.650Z,12.27
2022-12-11T08:47:32.457Z,12.73
2022-12-11T08:50:29.230Z,12.10
2022-12-11T08:52:57.556Z,13.37
2022-12-11T08:55:27.318Z,13.97
2022-12-11T08:57:55.365Z,13.33
2022-12-11T09:00:24.739Z,13.03
2022-12-11T09:02:52.765Z,12.60
2022-12-11T09:05:20.626Z,15.98
2022-12-11T09:07:48.496Z,13.30
2022-12-11T09:10:16.402Z,12.63
2022-12-11T09:12:44.523Z,13.00
2022-12-11T09:15:13.099Z,12.73
2022-12-11T09:17:42.568Z,12.80
2022-12-11T09:20:10.905Z,12.70
2022-12-11T09:22:39.675Z,10.60
2022-12-11T09:25:08.508Z,11.07
2022-12-11T09:27:36.728Z,10.63
2022-12-11T09:30:05.349Z,10.70
2022-12-11T09:32:33.382Z,10.00
2022-12-11T09:35:02.623Z,11.00
2022-12-11T09:37:30.495Z,11.37
2022-12-11T09:40:04.011Z,11.20
2022-12-11T09:42:47.265Z,10.40
2022-12-11T09:45:17.729Z,9.53
2022-12-11T09:47:50.029Z,9.13
2022-12-11T09:50:24.080Z,8.50
2022-12-11T09:53:03.537Z,8.27
2022-12-11T09:55:36.734Z,8.27
2022-12-11T09:58:13.393Z,8.10
2022-12-11T10:00:44.843Z,8.40
2022-12-11T10:03:39.792Z,8.23
2022-12-11T10:06:18.865Z,7.80
2022-12-11T10:08:54.244Z,8.53
2022-12-11T10:11:51.580Z,8.83
2022-12-11T10:14:33.931Z,8.60
2022-12-11T10:17:10.365Z,9.33
2022-12-11T10:19:39.359Z,9.53
2022-12-11T10:22:19.061Z,8.90
2022-12-11T10:25:10.538Z,8.87
2022-12-11T10:27:41.399Z,9.70
2022-12-11T10:30:17.087Z,10.23
2022-12-11T10:32:52.014Z,11.40
2022-12-11T10:35:28.043Z,9.47
2022-12-11T10:38:02.658Z,12.20
2022-12-11T10:40:32.219Z,12.17
2022-12-11T10:43:00.020Z,12.50
2022-12-11T10:45:27.914Z,9.73
2022-12-11T10:48:04.333Z,12.23
2022-12-11T10:50:32.489Z,11.30
2022-12-11T10:53:02.486Z,11.33
2022-12-11T10:55:38.574Z,10.40
2022-12-11T10:58:22.386Z,10.63
2022-12-11T11:01:04.235Z,12.40
2022-12-11T11:03:34.337Z,11.63
2022-12-11T11:06:08.057Z,13.20
2022-12-11T11:08:44.131Z,11.47
2022-12-11T11:11:23.851Z,11.60
2022-12-11T11:13:52.030Z,11.30
2022-12-11T11:16:23.166Z,10.90
2022-12-11T11:18:55.110Z,10.73
2022-12-11T11:21:25.256Z,11.83
2022-12-11T11:23:55.568Z,10.57
2022-12-11T11:26:23.917Z,11.70
2022-12-11T11:28:54.954Z,11.80
2022-12-11T11:31:32.120Z,13.57
2022-12-11T11:34:03.153Z,12.63
2022-12-11T11:36:33.457Z,13.33
2022-12-11T11:39:16.645Z,11.73
2022-12-11T11:41:50.548Z,11.57
2022-12-11T11:44:25.117Z,13.50
2022-12-11T11:47:00.004Z,10.97
2022-12-11T11:49:43.713Z,10.40
2022-12-11T11:52:17.847Z,11.47
2022-12-11T11:54:57.147Z,10.37
2022-12-11T11:57:56.483Z,10.73
2022-12-11T12:00:31.733Z,8.23
2022-12-11T12:03:04.338Z,8.93
2022-12-11T12:05:41.745Z,9.30
2022-12-11T12:08:13.888Z,11.93
2022-12-11T12:10:49.042Z,8.50
2022-12-11T12:13:48.565Z,7.83
2022-12-11T12:16:51.010Z,9.20
2022-12-11T12:19:20.931Z,9.47
2022-12-11T12:21:53.103Z,10.40
2022-12-11T12:24:30.635Z,10.40
2022-12-11T12:27:17.612Z,10.30
2022-12-11T12:30:02.900Z,11.57
2022-12-11T12:32:41.969Z,9.37
2022-12-11T12:35:31.000Z,10.17
2022-12-11T12:38:07.825Z,11.70
2022-12-11T12:40:40.874Z,11.50
2022-12-11T12:43:39.158Z,11.47
2022-12-11T12:46:18.865Z,11.03
2022-12-11T12:48:47.552Z,11.10
2022-12-11T12:51:17.360Z,11.77
2022-12-11T12:53:54.155Z,11.40
2022-12-11T12:56:22.881Z,13.73
2022-12-11T12:58:52.147Z,12.87
2022-12-11T13:01:22.712Z,13.43
2022-12-11T13:03:54.635Z,12.37
2022-12-11T13:06:35.779Z,13.23
2022-12-11T13:09:18.795Z,13.27
2022-12-11T13:11:50.109Z,11.30
2022-12-11T13:14:31.818Z,11.97
2022-12-11T13:17:28.344Z,12.13
2022-12-11T13:20:15.548Z,10.73
2022-12-11T13:22:56.262Z,10.00
2022-12-11T13:25:30.319Z,11.20
2022-12-11T13:28:08.010Z,10.13
2022-12-11T13:30:37.317Z,11.27
2022-12-11T13:33:14.867Z,9.70
2022-12-11T13:35:43.074Z,11.20
2022-12-11T13:38:18.347Z,9.07
2022-12-11T13:40:50.613Z,8.20
2022-12-11T13:43:21.278Z,7.53
2022-12-11T13:45:52.979Z,5.57
2022-12-11T13:48:26.628Z,4.90
2022-12-11T13:50:55.869Z,4.67
2022-12-11T13:53:24.486Z,4.20
2022-12-11T13:56:00.283Z,4.33
2022-12-11T13:58:29.899Z,7.70
2022-12-11T14:01:07.477Z,3.80
2022-12-11T14:03:37.109Z,4.80
2022-12-11T14:06:05.522Z,5.10
2022-12-11T14:08:36.571Z,5.17
2022-12-11T14:11:05.775Z,5.80
2022-12-11T14:13:36.663Z,6.83
2022-12-11T14:16:07.981Z,4.77
2022-12-11T14:18:37.721Z,5.57
2022-12-11T14:21:07.210Z,5.70
2022-12-11T14:23:36.432Z,6.10
2022-12-11T14:26:16.232Z,6.20
2022-12-11T14:28:44.698Z,5.43
2022-12-11T14:31:18.431Z,5.67
2022-12-11T14:33:51.704Z,6.10
2022-12-11T14:36:19.966Z,4.83
2022-12-11T14:38:50.731Z,4.70
2022-12-11T14:41:24.675Z,5.73
2022-12-11T14:43:56.231Z,5.23
2022-12-11T14:46:31.964Z,5.00
2022-12-11T14:49:07.383Z,5.67
2022-12-11T14:51:39.765Z,6.30
2022-12-11T14:54:17.347Z,6.10
2022-12-11T14:56:48.378Z,6.20
2022-12-11T14:59:26.888Z,5.80
2022-12-11T15:02:05.146Z,7.00
2022-12-11T15:04:34.500Z,7.43
2022-12-11T15:07:02.470Z,7.27
2022-12-11T15:09:37.127Z,8.47
2022-12-11T15:12:12.070Z,9.60
2022-12-11T15:14:46.342Z,8.17
2022-12-11T15:17:16.374Z,8.37
2022-12-11T15:19:51.575Z,8.63
2022-12-11T15:22:23.725Z,7.70
2022-12-11T15:24:59.244Z,8.53
2022-12-11T15:27:32.817Z,8.13
2022-12-11T15:30:00.725Z,8.10
2022-12-11T15:32:32.464Z,9.30
2022-12-11T15:35:01.316Z,12.30
2022-12-11T15:37:31.109Z,10.60
2022-12-11T15:40:02.183Z,9.90
2022-12-11T15:42:33.023Z,10.50
2022-12-11T15:45:01.255Z,10.17
2022-12-11T15:47:31.886Z,11.83
2022-12-11T15:50:02.812Z,9.23
2022-12-11T15:52:34.358Z,9.10
2022-12-11T15:55:02.176Z,9.80
2022-12-11T15:57:30.411Z,9.63
2022-12-11T15:59:59.646Z,10.40
2022-12-11T16:02:27.893Z,9.43
2022-12-11T16:04:57.132Z,9.07
2022-12-11T16:07:26.311Z,10.50
2022-12-11T16:09:54.299Z,9.50
2022-12-11T16:12:22.085Z,9.50
2022-12-11T16:14:49.913Z,11.33
2022-12-11T16:17:18.240Z,9.23
2022-12-11T16:19:46.200Z,11.17
2022-12-11T16:22:15.859Z,11.30
2022-12-11T16:24:43.756Z,10.23
2022-12-11T16:27:11.613Z,11.53
2022-12-11T16:29:41.162Z,11.30
2022-12-11T16:32:09.989Z,11.57
2022-12-11T16:34:38.956Z,12.10
2022-12-11T16:37:07.900Z,12.50
2022-12-11T16:39:38.750Z,12.27
2022-12-11T16:42:06.962Z,14.57
2022-12-11T16:44:37.314Z,13.70
2022-12-11T16:47:08.826Z,12.03
2022-12-11T16:49:36.707Z,13.40
2022-12-11T16:52:04.697Z,12.80
2022-12-11T16:54:32.541Z,13.10
2022-12-11T16:57:02.192Z,11.87
2022-12-11T16:59:33.718Z,12.70
2022-12-11T17:02:04.828Z,13.67
2022-12-11T17:04:32.883Z,11.43
2022-12-11T17:07:00.764Z,11.57
2022-12-11T17:09:28.600Z,11.40
2022-12-11T17:11:57.488Z,13.80
2022-12-11T17:14:27.031Z,10.67
2022-12-11T17:16:55.091Z,9.73
2022-12-11T17:19:23.373Z,10.60
2022-12-11T17:21:51.757Z,10.93
2022-12-11T17:24:19.803Z,10.97
2022-12-11T17:26:47.810Z,11.87
2022-12-11T17:29:15.875Z,11.23
2022-12-11T17:31:45.130Z,12.10
2022-12-11T17:34:13.025Z,12.10
2022-12-11T17:36:40.870Z,12.90
2022-12-11T17:39:08.752Z,12.37
2022-12-11T17:41:36.616Z,13.73
2022-12-11T17:44:04.658Z,11.83
2022-12-11T17:46:32.642Z,11.90
2022-12-11T17:49:03.705Z,13.30
2022-12-11T17:51:31.608Z,11.63
2022-12-11T17:53:59.442Z,11.60
2022-12-11T17:56:27.705Z,10.70
2022-12-11T17:58:55.591Z,11.97
2022-12-11T18:01:23.564Z,11.80
2022-12-11T18:03:51.468Z,13.60
2022-12-11T18:06:22.927Z,16.87
2022-12-11T18:08:50.978Z,17.80
2022-12-11T18:11:21.551Z,20.47
2022-12-11T18:13:50.808Z,23.67
2022-12-11T18:16:21.082Z,22.37
2022-12-11T18:18:50.292Z,23.83
2022-12-11T18:21:21.908Z,25.10
2022-12-11T18:23:51.039Z,22.17
2022-12-11T18:26:19.938Z,16.20
2022-12-11T18:28:48.903Z,15.87
2022-12-11T18:31:17.653Z,14.90
2022-12-11T18:33:46.581Z,12.27
2022-12-11T18:36:16.010Z,11.37
2022-12-11T18:38:46.235Z,11.40
2022-12-11T18:41:14.852Z,11.63
2022-12-11T18:43:45.556Z,10.23
2022-12-11T18:46:15.124Z,10.87
2022-12-11T18:48:43.551Z,11.10
2022-12-11T18:51:13.692Z,9.50
2022-12-11T18:53:41.803Z,10.87
2022-12-11T18:56:14.038Z,11.40
2022-12-11T18:58:42.023Z,11.70
2022-12-11T19:01:11.462Z,12.37
2022-12-11T19:03:42.025Z,13.40
2022-12-11T19:06:12.225Z,14.17
2022-12-11T19:08:40.570Z,14.37
2022-12-11T19:11:08.870Z,13.20
2022-12-11T19:13:38.279Z,13.33
2022-12-11T19:16:06.331Z,15.60
2022-12-11T19:18:34.177Z,14.57
2022-12-11T19:21:09.056Z,13.73
2022-12-11T19:23:37.387Z,14.20
2022-12-11T19:26:05.722Z,13.83
2022-12-11T19:28:34.883Z,14.83
2022-12-11T19:31:04.131Z,11.50
2022-12-11T19:33:32.053Z,10.00
2022-12-11T19:36:06.229Z,9.50
2022-12-11T19:38:34.611Z,10.37
2022-12-11T19:41:06.941Z,10.00
2022-12-11T19:43:34.820Z,8.30
2022-12-11T19:46:04.669Z,9.50
2022-12-11T19:48:32.667Z,7.83
2022-12-11T19:51:05.161Z,10.50
2022-12-11T19:53:33.163Z,8.47
2022-12-11T19:56:01.360Z,9.40
2022-12-11T19:58:29.276Z,8.03
2022-12-11T20:00:57.438Z,8.40
2022-12-11T20:03:27.287Z,8.50
2022-12-11T20:06:01.285Z,9.00
2022-12-11T20:08:43.977Z,8.23
2022-12-11T20:11:17.863Z,8.03
2022-12-11T20:13:46.657Z,8.30
2022-12-11T20:16:15.372Z,9.47
2022-12-11T20:18:44.624Z,8.93
2022-12-11T20:21:15.141Z,10.00
2022-12-11T20:23:44.178Z,8.87
2022-12-11T20:26:14.348Z,9.30
2022-12-11T20:28:42.512Z,9.60
2022-12-11T20:31:19.574Z,8.50
2022-12-11T20:33:49.895Z,9.60
2022-12-11T20:36:19.441Z,8.57
2022-12-11T20:38:47.273Z,8.93
2022-12-11T20:41:18.788Z,8.90
2022-12-11T20:43:48.854Z,8.33
2022-12-11T20:46:18.671Z,9.37
2022-12-11T20:48:47.385Z,9.37
2022-12-11T20:51:25.802Z,8.77
2022-12-11T20:53:58.297Z,9.20
2022-12-11T20:56:28.112Z,9.77
2022-12-11T20:58:56.566Z,10.00
2022-12-11T21:01:28.161Z,8.40
2022-12-11T21:03:56.351Z,9.40
2022-12-11T21:06:28.340Z,9.57
2022-12-11T21:08:56.292Z,8.30
2022-12-11T21:11:24.934Z,10.13
2022-12-11T21:13:53.310Z,10.33
2022-12-11T21:16:21.679Z,10.47
2022-12-11T21:18:49.549Z,8.90
2022-12-11T21:21:18.107Z,10.70
2022-12-11T21:23:47.247Z,9.07
2022-12-11T21:26:15.668Z,9.90
2022-12-11T21:28:43.794Z,13.60
2022-12-11T21:31:14.682Z,10.33
2022-12-11T21:33:42.661Z,9.53
2022-12-11T21:36:12.513Z,8.30
2022-12-11T21:38:40.932Z,9.07
2022-12-11T21:41:13.499Z,10.20
2022-12-11T21:44:14.561Z,9.70
2022-12-11T21:46:31.271Z,9.90
2022-12-11T21:48:59.491Z,10.20
2022-12-11T21:51:35.738Z,10.57
2022-12-11T21:54:06.111Z,11.37
2022-12-11T21:56:36.018Z,13.43
2022-12-11T21:59:04.200Z,11.37
2022-12-11T22:01:35.034Z,12.33
2022-12-11T22:04:04.814Z,12.80
2022-12-11T22:06:32.699Z,12.13
2022-12-11T22:09:00.559Z,12.63
2022-12-11T22:11:30.823Z,10.93
2022-12-11T22:14:00.417Z,12.10
2022-12-11T22:16:28.550Z,12.20
2022-12-11T22:18:56.735Z,12.17
2022-12-11T22:21:24.596Z,12.10
2022-12-11T22:23:53.812Z,13.17
2022-12-11T22:26:28.998Z,10.17
2022-12-11T22:28:58.719Z,10.70
2022-12-11T22:31:27.873Z,10.53
2022-12-11T22:33:56.313Z,9.30
2022-12-11T22:36:25.286Z,9.10
2022-12-11T22:38:53.545Z,8.33
2022-12-11T22:41:25.085Z,8.80
2022-12-11T22:43:53.521Z,8.73
2022-12-11T22:46:24.928Z,8.83
2022-12-11T22:48:53.472Z,7.83
2022-12-11T22:51:22.238Z,8.83
2022-12-11T22:53:50.077Z,8.77
2022-12-11T22:56:18.007Z,8.33
2022-12-11T22:58:45.830Z,7.50
2022-12-11T23:01:16.595Z,7.27
2022-12-11T23:03:45.989Z,8.40
2022-12-11T23:06:16.029Z,8.27
2022-12-11T23:08:44.486Z,8.50
2022-12-11T23:11:14.312Z,6.83
2022-12-11T23:13:42.341Z,8.37
2022-12-11T23:16:10.995Z,6.07
2022-12-11T23:18:39.450Z,6.37
2022-12-11T23:21:10.144Z,7.73
2022-12-11T23:23:49.785Z,7.30
2022-12-11T23:26:19.487Z,6.60
2022-12-11T23:28:48.067Z,7.47
2022-12-11T23:31:17.031Z,6.80
2022-12-11T23:33:44.879Z,7.07
2022-12-11T23:36:14.322Z,8.07
2022-12-11T23:38:42.585Z,7.60
2022-12-11T23:41:12.708Z,7.17
2022-12-11T23:43:41.246Z,7.47
2022-12-11T23:46:13.197Z,7.20
2022-12-11T23:48:41.284Z,6.67
2022-12-11T23:51:10.517Z,7.30
2022-12-11T23:53:39.696Z,6.30
2022-12-11T23:56:10.977Z,6.47
2022-12-11T23:58:39.729Z,6.47
